Terminal Aerodrome Forecast
Issued by NWS

Home | Current Version | Previous Version | Text Only | Print | Product List | Glossary On
Versions: 1 2 3 4 5 6 7 8 9 10 11 12 13 14 15 16 17
000
FTAK31 PAFA 261738
TAFAFA
TAF
PAFA 261738Z 2618/2724 11003KT P6SM FEW070 FEW090
     FM262200 18005KT P6SM VCSH SCT050 BKN090
     FM270700 VRB05KT P6SM FEW050 BKN090=

USA.gov is the U.S. government's official web portal to all federal, state and local government web resources and services.